Clarendon Hills, Illinois
Current Conditions -  °F | °C
As of 10:18 PM on Monday 22 Dec 2014 (Local Time) from KMDW Reporting Station
Haze Haze  
Wind Chill: 36°   Ceiling: 800
Heat Index: 43°   Visibility: 3mi
Dew Point: 41°   Wind: 13mph
Humidity: 93%   Direction: 120°ESE
Pressure: 29.62"   Gusts: NA
Location:  41.8°N, 87.95°W
Report Text: KMDW 230418Z 12011KT 3SM BR BKN008 OVC012 06/05 A2962 RMK AO2 RAE0358DZB0358E13 P0001 T00610050
Loading
Personal Weather Stations






























Interactive Weather Map New forecast layout! Learn more

10-Day Weather Forecast

Advertisements
Track Severe Weather on mobile